Time;durP1;ratioP1;P1;durP2;ratioP2;P2;SDS_P1;SDS_P2;PMS_P1;PMS_P2;Temp;Humidity;BMP_temperature;BMP_pressure;BME280_temperature;BME280_humidity;BME280_pressure;Samples;Min_cycle;Max_cycle;Signal;HPM_P1;HPM_P2
2021/09/18 00:02:14;;;;;;;11.80;5.83;;;14.30;99.90;;;;;;5010716;28;20427;-74
2021/09/18 00:05:00;;;;;;;6.63;5.90;;;14.30;99.90;;;;;;5008486;28;21054;-75
2021/09/18 00:07:45;;;;;;;10.60;6.33;;;14.20;99.90;;;;;;5011176;28;20786;-75
2021/09/18 00:10:33;;;;;;;7.97;6.57;;;14.20;99.90;;;;;;5007802;28;20527;-76
2021/09/18 00:13:18;;;;;;;9.20;5.90;;;14.10;99.90;;;;;;5011459;28;20550;-75
2021/09/18 00:16:05;;;;;;;7.80;5.90;;;14.00;99.90;;;;;;5009025;28;20481;-75
2021/09/18 00:18:50;;;;;;;6.77;6.07;;;14.10;99.90;;;;;;5009392;28;21006;-75
2021/09/18 00:21:36;;;;;;;6.20;5.60;;;14.20;99.90;;;;;;5011794;28;20447;-75
2021/09/18 00:24:22;;;;;;;8.10;6.40;;;14.20;99.90;;;;;;5010141;28;20439;-75
2021/09/18 00:27:09;;;;;;;7.87;6.60;;;14.20;99.90;;;;;;5010956;28;20436;-75
2021/09/18 00:29:55;;;;;;;7.67;6.20;;;14.20;99.90;;;;;;5010986;28;20962;-75
2021/09/18 00:32:40;;;;;;;9.70;6.73;;;14.10;99.90;;;;;;5010254;28;20517;-75
2021/09/18 00:35:26;;;;;;;6.73;5.37;;;14.30;99.90;;;;;;5009184;28;20568;-76
2021/09/18 00:38:12;;;;;;;6.33;5.73;;;14.20;99.90;;;;;;5002964;28;20449;-74
2021/09/18 00:40:58;;;;;;;9.73;5.40;;;14.30;99.90;;;;;;5010444;28;20403;-75
2021/09/18 00:43:50;;;;;;;7.77;5.23;;;14.30;99.90;;;;;;5010218;28;20456;-75
2021/09/18 00:46:35;;;;;;;7.50;5.60;;;14.20;99.90;;;;;;5005594;28;20448;-75
2021/09/18 00:49:22;;;;;;;9.50;5.37;;;14.10;99.90;;;;;;5006333;28;20423;-75
2021/09/18 00:52:07;;;;;;;12.67;6.50;;;14.00;99.90;;;;;;5003573;28;20458;-75
2021/09/18 00:54:53;;;;;;;12.43;5.37;;;13.90;99.90;;;;;;5006693;28;20455;-76
2021/09/18 00:57:40;;;;;;;6.50;4.90;;;13.80;99.90;;;;;;5010465;28;20449;-76
2021/09/18 01:00:27;;;;;;;6.30;5.70;;;13.80;99.90;;;;;;5005198;28;20436;-75
2021/09/18 01:03:12;;;;;;;8.00;5.93;;;13.80;99.90;;;;;;5004061;28;20425;-75
2021/09/18 01:05:59;;;;;;;10.10;5.90;;;13.80;99.90;;;;;;5009764;28;20993;-75
2021/09/18 01:08:53;;;;;;;8.60;5.50;;;13.80;99.90;;;;;;5012066;28;21293;-75
2021/09/18 01:11:38;;;;;;;12.50;5.80;;;13.80;99.90;;;;;;5014381;28;20531;-75
2021/09/18 01:14:24;;;;;;;13.37;6.00;;;13.90;99.90;;;;;;5008549;28;20526;-75
2021/09/18 01:17:11;;;;;;;11.00;5.67;;;13.90;99.90;;;;;;5013118;28;20464;-75
2021/09/18 01:19:57;;;;;;;6.43;5.10;;;14.00;99.90;;;;;;5014398;28;20489;-75
2021/09/18 01:22:43;;;;;;;13.03;4.73;;;14.00;99.90;;;;;;5015217;28;20418;-75
2021/09/18 01:25:32;;;;;;;7.40;5.20;;;13.90;99.90;;;;;;5011814;28;20583;-74
2021/09/18 01:28:18;;;;;;;6.50;5.90;;;13.80;99.90;;;;;;5013353;28;20596;-75
2021/09/18 01:31:04;;;;;;;7.40;5.70;;;13.70;99.90;;;;;;5013202;28;20420;-75
2021/09/18 01:33:50;;;;;;;8.80;5.37;;;13.60;99.90;;;;;;5014944;28;20433;-75
2021/09/18 01:36:37;;;;;;;6.03;5.23;;;13.60;99.90;;;;;;5014781;28;20993;-75
2021/09/18 01:39:27;;;;;;;8.33;5.57;;;13.60;99.90;;;;;;5011462;28;20423;-75
2021/09/18 01:42:14;;;;;;;9.17;6.00;;;13.60;99.90;;;;;;5012787;28;20454;-75
2021/09/18 01:44:59;;;;;;;9.53;6.47;;;13.60;99.90;;;;;;5013378;28;20465;-75
2021/09/18 01:47:47;;;;;;;7.83;5.27;;;13.60;99.90;;;;;;5013870;28;20481;-75
2021/09/18 01:50:36;;;;;;;6.07;5.47;;;13.50;99.90;;;;;;5012859;28;20428;-76
2021/09/18 01:53:23;;;;;;;7.00;5.97;;;13.50;99.90;;;;;;5006490;28;20423;-74
2021/09/18 01:56:09;;;;;;;6.10;5.50;;;13.50;99.90;;;;;;5014241;28;20499;-75
2021/09/18 01:58:56;;;;;;;8.77;5.97;;;13.50;99.90;;;;;;5013172;28;20421;-75
2021/09/18 02:01:42;;;;;;;6.00;5.40;;;13.40;99.90;;;;;;5013373;28;20457;-75
2021/09/18 02:04:28;;;;;;;8.77;6.07;;;13.30;99.90;;;;;;5008292;28;20448;-74
2021/09/18 02:07:14;;;;;;;8.33;6.07;;;13.20;99.90;;;;;;5015096;28;20471;-75
2021/09/18 02:10:00;;;;;;;12.40;5.70;;;13.30;99.90;;;;;;5010256;28;20970;-74
2021/09/18 02:12:46;;;;;;;7.20;5.47;;;13.30;99.90;;;;;;5013318;28;20420;-75
2021/09/18 02:15:33;;;;;;;8.23;5.33;;;13.30;99.90;;;;;;5012868;28;20591;-75
2021/09/18 02:18:20;;;;;;;5.53;4.70;;;13.30;99.90;;;;;;5012210;28;20577;-75
2021/09/18 02:21:05;;;;;;;7.40;5.30;;;13.30;99.90;;;;;;5013204;28;20453;-75
2021/09/18 02:23:51;;;;;;;6.10;5.30;;;13.30;99.90;;;;;;5011778;28;20487;-74
2021/09/18 02:26:36;;;;;;;5.53;4.97;;;13.40;99.90;;;;;;5013557;28;20993;-74
2021/09/18 02:29:21;;;;;;;6.33;5.17;;;13.40;99.90;;;;;;5012151;28;20427;-74
2021/09/18 02:32:09;;;;;;;8.53;5.40;;;13.50;99.90;;;;;;5011978;28;20453;-75
2021/09/18 02:34:55;;;;;;;8.23;5.00;;;13.40;99.90;;;;;;5011209;28;20513;-74
2021/09/18 02:37:41;;;;;;;5.33;4.77;;;13.30;99.90;;;;;;5013809;28;20422;-75
2021/09/18 02:40:29;;;;;;;7.97;4.90;;;13.20;99.90;;;;;;5009844;28;20446;-75
2021/09/18 02:43:14;;;;;;;8.87;5.53;;;13.20;99.90;;;;;;5012346;28;20448;-74
2021/09/18 02:46:00;;;;;;;5.77;4.87;;;13.20;99.90;;;;;;5012299;28;20439;-75
2021/09/18 02:48:47;;;;;;;6.77;4.40;;;13.10;99.90;;;;;;5011129;28;20539;-76
2021/09/18 02:51:32;;;;;;;6.50;5.10;;;13.00;99.90;;;;;;5008379;28;20903;-75
2021/09/18 02:54:18;;;;;;;5.33;4.60;;;12.90;99.90;;;;;;5009639;28;20973;-76
2021/09/18 02:57:04;;;;;;;7.10;5.20;;;12.80;99.90;;;;;;5011841;28;21482;-76
2021/09/18 02:59:50;;;;;;;7.17;6.10;;;12.80;99.90;;;;;;5011149;28;20392;-75
2021/09/18 03:02:35;;;;;;;6.87;5.50;;;12.60;99.90;;;;;;5008978;28;20431;-75
2021/09/18 03:05:23;;;;;;;8.80;7.80;;;12.60;99.90;;;;;;5009188;28;20468;-76
2021/09/18 03:08:08;;;;;;;9.77;7.10;;;12.60;99.90;;;;;;5004913;28;20468;-75
2021/09/18 03:10:54;;;;;;;11.83;7.40;;;12.80;99.90;;;;;;5009235;28;20496;-75
2021/09/18 03:13:40;;;;;;;9.97;6.57;;;12.90;99.90;;;;;;5007523;28;20449;-75
2021/09/18 03:16:25;;;;;;;8.20;6.50;;;13.10;99.90;;;;;;5006083;28;20463;-75
2021/09/18 03:19:11;;;;;;;13.10;7.80;;;13.20;99.90;;;;;;5008808;28;20494;-74
2021/09/18 03:21:58;;;;;;;13.13;7.00;;;13.20;99.90;;;;;;5010659;28;20464;-75
2021/09/18 03:24:43;;;;;;;8.87;7.57;;;13.20;99.90;;;;;;5008576;28;20789;-75
2021/09/18 03:27:29;;;;;;;59.97;9.03;;;13.20;99.90;;;;;;5012812;28;20480;-74
2021/09/18 03:30:14;;;;;;;85.53;9.40;;;13.30;99.90;;;;;;5007476;28;20430;-75
2021/09/18 03:33:00;;;;;;;40.57;8.13;;;13.20;99.90;;;;;;5006892;28;21033;-75
2021/09/18 03:35:46;;;;;;;10.13;8.20;;;13.10;99.90;;;;;;5013250;28;20447;-75
2021/09/18 03:38:33;;;;;;;15.23;7.47;;;13.10;99.90;;;;;;5010194;28;20420;-74
2021/09/18 03:41:19;;;;;;;14.90;7.30;;;13.20;99.90;;;;;;5008511;28;20423;-75
2021/09/18 03:44:05;;;;;;;22.23;6.37;;;13.10;99.90;;;;;;5010057;28;20444;-75
2021/09/18 03:46:51;;;;;;;20.93;6.50;;;13.00;99.90;;;;;;5008507;28;20458;-74
2021/09/18 03:49:37;;;;;;;13.47;6.33;;;12.90;99.90;;;;;;5007889;28;20984;-75
2021/09/18 03:52:25;;;;;;;15.67;7.20;;;12.80;99.90;;;;;;5012488;28;20425;-75
2021/09/18 03:55:13;;;;;;;7.83;6.43;;;12.70;99.90;;;;;;5012529;28;20532;-75
2021/09/18 03:57:58;;;;;;;21.00;7.40;;;12.70;99.90;;;;;;5010073;28;20427;-75
2021/09/18 04:00:45;;;;;;;7.37;6.67;;;12.70;99.90;;;;;;5011501;28;20460;-74
2021/09/18 04:03:31;;;;;;;12.00;7.47;;;12.70;99.90;;;;;;5012251;28;20561;-74
2021/09/18 04:06:16;;;;;;;8.03;7.07;;;12.70;99.90;;;;;;5011612;28;20482;-74
2021/09/18 04:09:02;;;;;;;9.00;7.67;;;12.80;99.90;;;;;;5012139;28;21277;-75
2021/09/18 04:11:49;;;;;;;8.73;7.37;;;12.90;99.90;;;;;;5011167;28;20585;-75
2021/09/18 04:14:34;;;;;;;7.63;6.40;;;13.00;99.90;;;;;;5010790;28;20466;-74
2021/09/18 04:17:20;;;;;;;51.27;7.30;;;13.10;99.90;;;;;;5006729;28;20779;-75
2021/09/18 04:20:10;;;;;;;19.90;8.50;;;13.10;99.90;;;;;;5011710;28;20824;-75
2021/09/18 04:22:55;;;;;;;8.37;7.50;;;12.80;99.90;;;;;;5011119;28;20935;-74
2021/09/18 04:25:41;;;;;;;18.97;7.20;;;12.70;99.90;;;;;;5007271;28;20468;-74
2021/09/18 04:28:28;;;;;;;26.77;7.67;;;12.70;99.90;;;;;;5005451;28;20450;-75
2021/09/18 04:31:14;;;;;;;50.20;7.90;;;12.60;99.90;;;;;;5011344;28;20427;-75
2021/09/18 04:34:00;;;;;;;12.13;8.63;;;12.60;99.90;;;;;;5010941;28;20459;-75
2021/09/18 04:36:45;;;;;;;9.70;7.30;;;12.60;99.90;;;;;;5011313;28;20436;-74
2021/09/18 04:39:31;;;;;;;14.13;7.23;;;12.60;99.90;;;;;;5010741;28;20528;-75
2021/09/18 04:42:17;;;;;;;10.73;7.93;;;12.70;99.90;;;;;;5003301;28;20429;-75
2021/09/18 04:45:04;;;;;;;9.43;8.00;;;12.70;99.90;;;;;;5007755;28;20455;-76
2021/09/18 04:47:50;;;;;;;9.57;7.33;;;12.80;99.90;;;;;;5011382;28;21067;-75
2021/09/18 04:50:36;;;;;;;10.53;7.97;;;12.90;99.90;;;;;;5011609;28;20436;-75
2021/09/18 04:53:21;;;;;;;15.13;7.67;;;13.00;99.90;;;;;;5011673;28;20417;-73
2021/09/18 04:56:07;;;;;;;10.43;7.70;;;13.00;99.90;;;;;;4991566;28;20413;-75
2021/09/18 04:58:53;;;;;;;9.40;7.97;;;13.00;99.90;;;;;;4995011;28;20422;-75
2021/09/18 05:01:39;;;;;;;8.83;7.10;;;13.10;99.90;;;;;;5010468;28;20448;-75
2021/09/18 05:04:25;;;;;;;64.60;7.70;;;13.10;99.90;;;;;;4991502;28;20414;-75
2021/09/18 05:07:11;;;;;;;16.10;8.80;;;13.00;99.90;;;;;;5005553;28;20564;-75
2021/09/18 05:09:57;;;;;;;16.87;8.03;;;12.90;99.90;;;;;;5010418;28;20449;-75
2021/09/18 05:12:42;;;;;;;109.40;9.20;;;12.80;99.90;;;;;;5011963;28;20400;-75
2021/09/18 05:15:28;;;;;;;79.73;8.40;;;12.90;99.90;;;;;;5009214;28;20488;-75
2021/09/18 05:18:15;;;;;;;33.97;8.10;;;12.70;99.90;;;;;;5003459;28;20460;-75
2021/09/18 05:21:01;;;;;;;20.80;7.00;;;12.60;99.90;;;;;;5003011;28;20452;-75
2021/09/18 05:23:47;;;;;;;41.37;8.20;;;12.60;99.90;;;;;;5011286;28;20845;-75
2021/09/18 05:26:33;;;;;;;28.80;7.03;;;12.60;99.90;;;;;;5009795;28;20469;-74
2021/09/18 05:29:18;;;;;;;8.63;7.07;;;12.70;99.90;;;;;;5010361;28;20477;-75
2021/09/18 05:32:05;;;;;;;35.73;7.90;;;12.70;99.90;;;;;;5008553;28;20524;-75
2021/09/18 05:34:52;;;;;;;7.27;6.57;;;12.80;99.90;;;;;;5009213;28;20467;-75
2021/09/18 05:37:38;;;;;;;10.13;7.53;;;12.90;99.90;;;;;;5010834;28;20796;-75
2021/09/18 05:40:26;;;;;;;10.43;7.00;;;12.90;99.90;;;;;;5013325;28;20469;-74
2021/09/18 05:43:12;;;;;;;8.30;7.40;;;13.00;99.90;;;;;;5026628;28;20424;-75
2021/09/18 05:45:57;;;;;;;8.70;6.70;;;13.00;99.90;;;;;;5030265;28;20440;-75
2021/09/18 05:48:43;;;;;;;50.50;6.17;;;13.00;99.90;;;;;;5006489;28;20472;-74
2021/09/18 05:51:30;;;;;;;8.83;5.97;;;13.00;99.90;;;;;;5009699;28;20430;-75
2021/09/18 05:54:16;;;;;;;8.00;5.83;;;13.00;99.90;;;;;;5004788;28;20787;-75
2021/09/18 05:57:02;;;;;;;31.67;5.50;;;13.00;99.90;;;;;;5014239;28;20460;-75
2021/09/18 05:59:47;;;;;;;6.33;4.90;;;13.10;99.90;;;;;;5013669;28;20438;-75
2021/09/18 06:02:33;;;;;;;5.40;4.50;;;13.10;99.90;;;;;;5009352;28;20513;-75
2021/09/18 06:05:18;;;;;;;5.90;5.30;;;13.10;99.90;;;;;;5002845;28;20814;-74
2021/09/18 06:08:06;;;;;;;9.40;4.93;;;13.10;99.90;;;;;;5013024;28;20531;-74
2021/09/18 06:10:51;;;;;;;4.80;4.40;;;13.10;99.90;;;;;;5013353;28;21085;-75
2021/09/18 06:13:37;;;;;;;6.40;5.80;;;13.00;99.90;;;;;;5014536;28;20516;-75
2021/09/18 06:16:23;;;;;;;7.13;5.43;;;13.10;99.90;;;;;;5013314;28;20611;-75
2021/09/18 06:19:11;;;;;;;9.90;6.27;;;13.10;99.90;;;;;;4995540;28;20426;-75
2021/09/18 06:21:57;;;;;;;20.27;5.87;;;13.20;99.90;;;;;;5011873;28;20480;-75
2021/09/18 06:24:44;;;;;;;6.40;5.47;;;13.00;99.90;;;;;;5012033;28;20469;-75
2021/09/18 06:27:31;;;;;;;6.23;5.63;;;13.00;99.90;;;;;;5013112;28;20448;-74
2021/09/18 06:30:17;;;;;;;7.63;5.90;;;13.00;99.90;;;;;;5012032;28;20417;-75
2021/09/18 06:33:02;;;;;;;5.57;5.03;;;13.10;99.90;;;;;;5013475;28;20428;-75
2021/09/18 06:35:48;;;;;;;6.00;5.40;;;13.10;99.90;;;;;;5012807;28;20474;-75
2021/09/18 06:38:34;;;;;;;7.83;5.80;;;13.10;99.90;;;;;;5009515;28;20395;-75
2021/09/18 06:41:20;;;;;;;6.80;6.20;;;13.20;99.90;;;;;;5013006;28;20499;-74
2021/09/18 06:44:06;;;;;;;6.40;5.80;;;13.30;99.90;;;;;;5012337;28;20585;-74
2021/09/18 06:46:52;;;;;;;7.53;5.83;;;13.40;99.90;;;;;;5011225;28;20939;-75
2021/09/18 06:49:37;;;;;;;5.50;5.00;;;13.40;99.90;;;;;;5012877;28;20598;-75
2021/09/18 06:52:23;;;;;;;13.40;4.80;;;13.50;99.90;;;;;;5007493;28;20427;-74
2021/09/18 06:55:09;;;;;;;6.10;5.60;;;13.50;99.90;;;;;;5011985;28;20517;-75
2021/09/18 06:57:56;;;;;;;5.70;5.10;;;13.60;99.90;;;;;;5013359;28;20456;-75
2021/09/18 07:00:42;;;;;;;5.73;5.17;;;13.60;99.90;;;;;;5006367;28;20485;-75
2021/09/18 07:03:28;;;;;;;6.80;5.93;;;13.70;99.90;;;;;;5008036;28;20561;-75
2021/09/18 07:06:14;;;;;;;15.03;4.70;;;13.70;99.90;;;;;;5013526;28;20457;-74
2021/09/18 07:08:59;;;;;;;5.70;5.03;;;13.80;99.90;;;;;;5003400;28;20500;-74
2021/09/18 07:11:45;;;;;;;5.30;4.80;;;13.80;99.90;;;;;;4994008;28;20455;-75
2021/09/18 07:14:32;;;;;;;5.70;5.10;;;13.90;99.90;;;;;;4992798;28;20510;-75
2021/09/18 07:17:18;;;;;;;471.23;196.07;;;14.00;99.90;;;;;;4995180;28;20524;-76
2021/09/18 07:20:05;;;;;;;405.00;148.67;;;14.00;99.90;;;;;;5013883;28;20898;-79
2021/09/18 07:22:50;;;;;;;165.43;69.43;;;14.00;99.90;;;;;;5013865;28;20427;-77
2021/09/18 07:25:36;;;;;;;47.70;25.27;;;14.10;99.90;;;;;;5014735;28;21000;-77
2021/09/18 07:28:21;;;;;;;30.60;17.07;;;14.20;99.90;;;;;;5010352;28;20451;-78
2021/09/18 07:31:08;;;;;;;41.57;19.77;;;14.30;99.90;;;;;;5014249;28;20939;-78
2021/09/18 07:33:54;;;;;;;36.73;17.50;;;14.30;99.90;;;;;;5015877;28;20426;-77
2021/09/18 07:36:39;;;;;;;31.70;13.77;;;14.40;99.90;;;;;;5014581;28;20472;-78
2021/09/18 07:39:26;;;;;;;10.50;7.33;;;14.60;99.90;;;;;;5010477;28;20755;-77
2021/09/18 07:42:11;;;;;;;6.10;5.50;;;14.70;99.90;;;;;;5009089;28;20514;-78
2021/09/18 07:44:57;;;;;;;9.30;6.50;;;14.80;99.90;;;;;;5014428;28;20612;-78
2021/09/18 07:47:44;;;;;;;7.70;6.03;;;14.90;99.90;;;;;;5014654;28;20436;-77
2021/09/18 07:50:30;;;;;;;6.30;5.47;;;15.00;99.90;;;;;;5015711;28;20449;-78
2021/09/18 07:53:16;;;;;;;6.33;5.17;;;15.00;99.90;;;;;;5007445;28;20825;-78
2021/09/18 07:56:01;;;;;;;7.60;6.13;;;15.20;99.90;;;;;;5012120;28;20558;-78
2021/09/18 07:58:47;;;;;;;6.83;5.67;;;15.30;99.90;;;;;;5011768;28;20909;-78
2021/09/18 08:01:33;;;;;;;9.10;6.80;;;15.40;99.90;;;;;;5011180;28;20453;-78
2021/09/18 08:04:20;;;;;;;11.33;7.67;;;15.60;99.90;;;;;;5014418;28;20936;-76
2021/09/18 08:07:06;;;;;;;8.93;7.50;;;15.80;99.90;;;;;;5010687;28;20420;-79
2021/09/18 08:09:55;;;;;;;8.53;7.57;;;15.90;99.90;;;;;;5013740;28;20510;-78
2021/09/18 08:12:41;;;;;;;11.37;6.87;;;16.00;99.90;;;;;;5007756;28;20437;-77
2021/09/18 08:15:27;;;;;;;9.00;7.37;;;16.10;99.90;;;;;;5009319;28;20598;-77
2021/09/18 08:18:13;;;;;;;9.10;7.27;;;16.20;99.90;;;;;;5013368;28;20414;-77
2021/09/18 08:21:00;;;;;;;7.97;6.73;;;16.40;99.90;;;;;;5015645;28;20457;-78
2021/09/18 08:23:46;;;;;;;6.40;5.80;;;16.50;99.90;;;;;;5013193;28;20466;-77
2021/09/18 08:26:32;;;;;;;7.67;6.87;;;16.70;99.90;;;;;;5013662;28;20455;-77
2021/09/18 08:29:17;;;;;;;6.13;5.50;;;16.80;99.90;;;;;;5011728;28;20473;-78
2021/09/18 08:32:03;;;;;;;7.60;6.40;;;16.90;99.90;;;;;;5012471;28;20575;-78
2021/09/18 08:34:49;;;;;;;5.43;4.83;;;17.10;99.90;;;;;;5010815;28;20522;-74
2021/09/18 08:37:36;;;;;;;6.93;5.30;;;17.20;99.90;;;;;;5013196;28;20392;-77
2021/09/18 08:40:21;;;;;;;8.20;5.40;;;17.30;99.90;;;;;;5010939;28;20958;-77
2021/09/18 08:43:08;;;;;;;6.07;4.90;;;17.40;99.90;;;;;;5013388;28;20810;-78
2021/09/18 08:45:56;;;;;;;6.70;5.20;;;17.60;99.90;;;;;;5009237;28;20558;-79
2021/09/18 08:48:42;;;;;;;6.67;5.60;;;17.60;99.90;;;;;;5014470;28;20448;-79
2021/09/18 08:51:28;;;;;;;7.73;5.50;;;17.70;99.90;;;;;;5009219;28;20476;-75
2021/09/18 08:54:14;;;;;;;8.47;5.83;;;17.90;99.90;;;;;;5011033;28;20446;-76
2021/09/18 08:57:00;;;;;;;9.30;6.33;;;18.00;99.90;;;;;;5008385;28;20503;-77
2021/09/18 08:59:46;;;;;;;13.47;8.03;;;18.20;99.90;;;;;;5010741;28;20518;-76
2021/09/18 09:02:33;;;;;;;9.40;5.37;;;18.30;99.90;;;;;;5010813;28;20458;-77
2021/09/18 09:05:19;;;;;;;6.57;5.77;;;18.40;99.90;;;;;;5010646;28;20439;-75
2021/09/18 09:08:08;;;;;;;7.43;6.23;;;18.60;99.90;;;;;;5011032;28;20413;-76
2021/09/18 09:10:55;;;;;;;8.40;6.50;;;18.60;99.90;;;;;;5005700;28;20943;-77
2021/09/18 09:13:53;;;;;;;8.00;6.13;;;18.80;99.90;;;;;;5008235;28;20465;-75
2021/09/18 09:16:56;;;;;;;12.90;5.70;;;18.90;99.90;;;;;;5010903;28;20393;-76
2021/09/18 09:19:43;;;;;;;5.87;5.23;;;19.00;99.90;;;;;;5010284;28;20520;-77
2021/09/18 09:22:43;;;;;;;8.97;6.63;;;19.20;99.90;;;;;;5010386;28;20409;-76
2021/09/18 09:25:31;;;;;;;7.07;6.37;;;19.20;99.90;;;;;;5003558;28;20440;-77
2021/09/18 09:28:30;;;;;;;8.83;6.47;;;19.40;99.90;;;;;;5010440;28;20446;-76
2021/09/18 09:31:23;;;;;;;7.37;6.67;;;19.60;99.90;;;;;;5012601;28;20875;-75
2021/09/18 09:34:14;;;;;;;11.67;7.23;;;19.60;99.90;;;;;;5014057;28;20426;-75
2021/09/18 09:37:01;;;;;;;8.73;7.83;;;19.60;99.90;;;;;;5017104;28;20862;-75
2021/09/18 09:39:51;;;;;;;8.10;6.93;;;19.60;99.90;;;;;;5011432;28;20450;-76
2021/09/18 09:42:46;;;;;;;11.87;8.23;;;19.70;99.90;;;;;;5012589;28;20454;-76
2021/09/18 09:45:34;;;;;;;8.83;6.60;;;19.80;99.90;;;;;;5011010;28;20470;-77
2021/09/18 09:48:21;;;;;;;10.13;6.60;;;19.90;99.90;;;;;;5014684;28;20397;-77
2021/09/18 09:51:07;;;;;;;8.70;7.00;;;20.10;99.90;;;;;;5011082;28;20431;-77
2021/09/18 09:53:52;;;;;;;8.93;7.40;;;20.30;99.90;;;;;;5011510;28;20418;-76
2021/09/18 09:56:38;;;;;;;9.00;7.60;;;20.40;99.90;;;;;;5011318;28;20473;-75
2021/09/18 09:59:29;;;;;;;8.90;8.00;;;20.40;99.90;;;;;;5011033;28;20466;-76
2021/09/18 10:02:16;;;;;;;8.67;7.00;;;20.10;99.90;;;;;;5012529;28;20858;-75
2021/09/18 10:05:02;;;;;;;9.07;8.17;;;20.30;99.90;;;;;;5012810;28;20457;-76
2021/09/18 10:07:47;;;;;;;10.23;8.20;;;20.30;99.90;;;;;;5011995;28;20502;-76
2021/09/18 10:10:34;;;;;;;9.37;7.60;;;20.50;99.90;;;;;;5009217;28;20883;-76
2021/09/18 10:13:23;;;;;;;10.27;7.47;;;20.60;99.90;;;;;;5008425;28;20452;-76
2021/09/18 10:16:10;;;;;;;7.73;5.97;;;20.90;99.90;;;;;;5004705;28;20512;-76
2021/09/18 10:18:58;;;;;;;9.20;7.70;;;21.10;99.90;;;;;;5008032;28;20451;-75
2021/09/18 10:24:48;;;;;;;7.13;6.40;;;21.20;99.90;;;;;;5013721;28;21053;-76
2021/09/18 10:27:34;;;;;;;15.50;7.13;;;21.30;99.90;;;;;;5013957;28;20427;-75
2021/09/18 10:30:30;;;;;;;7.10;6.40;;;21.40;99.90;;;;;;5008024;28;20549;-76
2021/09/18 10:33:34;;;;;;;9.50;8.33;;;21.70;99.90;;;;;;5013915;28;20461;-75
2021/09/18 10:36:23;;;;;;;9.10;8.20;;;21.80;99.90;;;;;;5015237;28;20533;-74
2021/09/18 10:39:10;;;;;;;10.50;8.80;;;21.90;99.90;;;;;;5005800;28;20402;-76
2021/09/18 10:41:58;;;;;;;9.90;8.30;;;21.80;99.90;;;;;;5013753;28;20410;-75
2021/09/18 10:44:49;;;;;;;11.20;7.70;;;21.80;99.90;;;;;;5012122;28;20480;-75
2021/09/18 10:47:40;;;;;;;9.43;8.23;;;21.70;99.90;;;;;;5013761;28;20430;-76
2021/09/18 10:50:40;;;;;;;12.30;8.43;;;21.50;99.90;;;;;;5013735;28;20491;-75
2021/09/18 10:53:27;;;;;;;10.00;7.80;;;21.40;99.90;;;;;;5013698;28;20613;-75
2021/09/18 10:56:13;;;;;;;8.90;7.97;;;21.30;99.90;;;;;;5011838;28;20448;-76
2021/09/18 10:59:06;;;;;;;10.60;8.33;;;21.10;99.90;;;;;;4993849;28;20426;-75
2021/09/18 11:01:52;;;;;;;11.93;10.23;;;20.80;99.90;;;;;;5003750;28;20451;-76
2021/09/18 11:04:41;;;;;;;7.43;6.67;;;20.50;99.90;;;;;;4993399;28;20459;-75
2021/09/18 11:07:42;;;;;;;9.10;7.97;;;20.50;99.90;;;;;;5011507;28;20419;-76
2021/09/18 11:10:54;;;;;;;16.43;12.97;;;20.70;99.90;;;;;;4993674;28;21024;-76
2021/09/18 11:13:42;;;;;;;14.80;12.37;;;21.00;99.90;;;;;;5012583;28;20420;-76
2021/09/18 11:16:33;;;;;;;23.57;15.03;;;21.40;99.90;;;;;;5012688;28;20446;-76
2021/09/18 11:19:22;;;;;;;22.20;17.20;;;21.60;99.90;;;;;;5013212;28;20428;-75
2021/09/18 11:22:13;;;;;;;30.90;19.10;;;22.00;98.90;;;;;;5013160;28;20402;-76
2021/09/18 11:25:26;;;;;;;23.77;18.73;;;22.20;99.90;;;;;;5005882;28;20483;-75
2021/09/18 11:28:14;;;;;;;19.87;15.90;;;22.40;96.10;;;;;;5003521;28;20479;-75
2021/09/18 11:31:00;;;;;;;20.67;15.70;;;22.60;92.40;;;;;;5006978;28;20975;-76
2021/09/18 11:33:50;;;;;;;18.40;15.60;;;22.70;90.40;;;;;;5009752;28;20469;-75
2021/09/18 11:36:44;;;;;;;16.80;15.13;;;22.80;93.60;;;;;;5009602;28;20442;-75
2021/09/18 11:39:42;;;;;;;14.97;13.37;;;22.90;93.70;;;;;;5010728;28;20448;-76
2021/09/18 11:42:34;;;;;;;14.50;11.37;;;22.80;93.00;;;;;;5006034;28;20424;-75
2021/09/18 11:45:24;;;;;;;13.70;11.00;;;22.40;94.80;;;;;;5010108;28;21003;-75
2021/09/18 11:48:17;;;;;;;16.00;11.90;;;22.20;95.70;;;;;;5008374;28;20447;-76
2021/09/18 11:51:06;;;;;;;13.33;11.53;;;21.90;97.40;;;;;;5010444;28;20484;-76
2021/09/18 11:54:00;;;;;;;19.90;14.63;;;21.70;99.50;;;;;;5012237;28;20815;-76
2021/09/18 11:56:47;;;;;;;20.93;15.30;;;21.50;98.40;;;;;;5007771;28;20805;-76
2021/09/18 11:59:33;;;;;;;20.27;16.30;;;21.30;99.40;;;;;;5006197;28;20413;-75
2021/09/18 12:02:31;;;;;;;21.70;15.73;;;20.90;99.40;;;;;;5008187;28;20545;-76
2021/09/18 12:05:18;;;;;;;19.07;15.50;;;20.80;99.90;;;;;;5004880;28;20406;-76
2021/09/18 12:08:05;;;;;;;19.40;16.20;;;20.80;99.90;;;;;;5009664;28;20560;-76
2021/09/18 12:10:52;;;;;;;19.07;15.17;;;20.80;99.90;;;;;;5009402;28;20503;-76
2021/09/18 12:13:39;;;;;;;21.70;16.63;;;21.00;99.90;;;;;;5007087;28;20992;-76
2021/09/18 12:16:26;;;;;;;23.47;19.63;;;21.20;99.90;;;;;;5006003;28;20760;-76
2021/09/18 12:19:20;;;;;;;22.07;17.30;;;21.50;98.10;;;;;;5008638;28;20482;-76
2021/09/18 12:22:06;;;;;;;22.83;19.80;;;21.80;97.00;;;;;;5011159;28;20990;-76
2021/09/18 12:24:53;;;;;;;24.03;20.17;;;22.20;94.10;;;;;;5010669;28;20585;-76
2021/09/18 12:27:38;;;;;;;27.43;24.03;;;22.70;92.70;;;;;;5010373;28;20569;-76
2021/09/18 12:30:27;;;;;;;27.73;21.90;;;23.00;87.00;;;;;;5009833;28;20480;-76
2021/09/18 12:33:15;;;;;;;24.17;20.90;;;23.20;83.90;;;;;;5007942;28;20934;-77
2021/09/18 12:36:08;;;;;;;24.27;21.67;;;23.50;80.00;;;;;;5011088;28;20426;-76
2021/09/18 12:38:56;;;;;;;18.70;15.87;;;23.70;70.90;;;;;;5006976;28;20883;-77
2021/09/18 12:41:44;;;;;;;21.00;16.20;;;23.90;69.10;;;;;;5011735;28;20440;-76
2021/09/18 12:44:34;;;;;;;21.60;18.70;;;24.00;66.70;;;;;;5010527;28;20492;-76
2021/09/18 12:47:24;;;;;;;22.00;13.67;;;24.10;65.10;;;;;;5006633;28;20428;-76
2021/09/18 12:50:17;;;;;;;16.93;13.37;;;24.20;64.50;;;;;;5003372;28;20469;-77
2021/09/18 12:53:19;;;;;;;14.73;12.87;;;24.40;63.60;;;;;;5007467;28;20589;-75
2021/09/18 12:56:16;;;;;;;14.87;12.67;;;24.50;58.60;;;;;;5009946;28;20463;-76
2021/09/18 12:59:15;;;;;;;16.20;12.87;;;24.70;60.00;;;;;;5011365;28;20787;-75
2021/09/18 13:02:01;;;;;;;23.70;13.80;;;24.80;58.40;;;;;;5010614;28;21013;-75
2021/09/18 13:04:47;;;;;;;17.17;12.10;;;24.80;57.60;;;;;;5005291;28;20600;-76
2021/09/18 13:07:32;;;;;;;16.53;12.47;;;25.00;58.60;;;;;;5008958;28;20446;-76
2021/09/18 13:10:25;;;;;;;16.47;14.70;;;25.10;54.60;;;;;;5010324;28;20466;-75
2021/09/18 13:13:32;;;;;;;13.83;11.90;;;25.30;57.20;;;;;;5009487;28;20468;-77
2021/09/18 13:16:19;;;;;;;15.60;13.23;;;25.50;55.50;;;;;;5003302;28;20485;-77
2021/09/18 13:19:11;;;;;;;14.03;11.17;;;25.70;55.50;;;;;;5012169;28;20941;-77
2021/09/18 13:21:56;;;;;;;15.23;10.80;;;25.80;51.80;;;;;;5005616;28;20601;-76
2021/09/18 13:24:44;;;;;;;13.77;9.60;;;25.80;50.70;;;;;;5008950;28;21020;-77
2021/09/18 13:27:31;;;;;;;16.67;12.00;;;25.80;50.80;;;;;;5010189;28;20513;-77
2021/09/18 13:30:17;;;;;;;13.97;11.27;;;25.80;52.90;;;;;;5009185;28;21000;-76
2021/09/18 13:33:02;;;;;;;14.90;13.20;;;25.80;55.10;;;;;;5010887;28;20448;-77
2021/09/18 13:35:48;;;;;;;15.30;12.97;;;25.90;54.00;;;;;;5009566;28;20471;-77
2021/09/18 13:38:33;;;;;;;13.97;12.07;;;25.90;53.00;;;;;;5010810;28;20420;-77
2021/09/18 13:41:19;;;;;;;16.30;13.80;;;25.90;51.90;;;;;;5002155;28;20434;-76
2021/09/18 13:44:06;;;;;;;13.47;12.07;;;25.70;51.60;;;;;;5009972;28;20438;-77
2021/09/18 13:46:52;;;;;;;17.20;13.33;;;25.30;52.80;;;;;;5008154;28;20788;-77
2021/09/18 13:49:38;;;;;;;12.37;10.97;;;25.10;52.80;;;;;;5010049;28;20424;-77
2021/09/18 13:52:24;;;;;;;14.17;11.40;;;25.10;54.70;;;;;;5011073;28;20422;-77
2021/09/18 13:55:10;;;;;;;11.37;10.17;;;25.00;53.80;;;;;;4992634;28;20482;-76
2021/09/18 13:57:55;;;;;;;13.63;10.17;;;24.70;56.70;;;;;;5008513;28;20439;-77
2021/09/18 14:00:45;;;;;;;13.70;11.10;;;24.70;55.80;;;;;;5010257;28;20529;-77
2021/09/18 14:03:33;;;;;;;12.40;11.10;;;24.70;53.90;;;;;;5010441;28;20512;-77
2021/09/18 14:06:20;;;;;;;13.13;10.27;;;24.90;53.50;;;;;;5010678;28;20450;-77
2021/09/18 14:09:06;;;;;;;12.97;11.57;;;24.90;53.00;;;;;;5010236;28;20450;-77
2021/09/18 14:11:52;;;;;;;12.50;11.03;;;25.30;54.70;;;;;;5010052;28;20516;-77
2021/09/18 14:14:38;;;;;;;11.17;10.07;;;25.30;52.60;;;;;;5011244;28;20480;-77
2021/09/18 14:17:25;;;;;;;11.57;8.07;;;25.10;53.80;;;;;;5012909;28;20444;-77
2021/09/18 14:20:11;;;;;;;13.20;8.90;;;25.30;53.70;;;;;;5006438;28;20418;-77
2021/09/18 14:22:57;;;;;;;12.17;9.27;;;25.60;52.40;;;;;;5014619;28;20520;-77
2021/09/18 14:25:43;;;;;;;11.83;10.27;;;25.70;52.10;;;;;;5013039;28;20833;-77
2021/09/18 14:28:29;;;;;;;12.07;8.60;;;25.80;49.80;;;;;;5012550;28;20461;-77